sensor_id;sensor_type;location;lat;lon;timestamp;temperature;humidity
37289;DHT22;23174;49.462;11.000;2022-08-19T00:00:31;21.70;99.90
37289;DHT22;23174;49.462;11.000;2022-08-19T00:02:32;21.70;99.90
37289;DHT22;23174;49.462;11.000;2022-08-19T00:04:34;21.80;99.90
37289;DHT22;23174;49.462;11.000;2022-08-19T00:06:38;21.70;99.90
37289;DHT22;23174;49.462;11.000;2022-08-19T00:08:39;21.50;99.90
37289;DHT22;23174;49.462;11.000;2022-08-19T00:10:40;21.60;99.90
37289;DHT22;23174;49.462;11.000;2022-08-19T00:12:41;21.70;99.90
37289;DHT22;23174;49.462;11.000;2022-08-19T00:14:42;21.70;99.90
37289;DHT22;23174;49.462;11.000;2022-08-19T00:16:44;21.70;99.90
37289;DHT22;23174;49.462;11.000;2022-08-19T00:18:47;21.50;99.90
37289;DHT22;23174;49.462;11.000;2022-08-19T00:20:47;21.60;99.90
37289;DHT22;23174;49.462;11.000;2022-08-19T00:22:49;21.70;99.90
37289;DHT22;23174;49.462;11.000;2022-08-19T00:24:49;21.70;99.90
37289;DHT22;23174;49.462;11.000;2022-08-19T00:26:51;21.60;99.90
37289;DHT22;23174;49.462;11.000;2022-08-19T00:28:51;21.70;99.90
37289;DHT22;23174;49.462;11.000;2022-08-19T00:30:52;21.70;99.90
37289;DHT22;23174;49.462;11.000;2022-08-19T00:32:53;21.70;99.90
37289;DHT22;23174;49.462;11.000;2022-08-19T00:34:55;21.60;99.90
37289;DHT22;23174;49.462;11.000;2022-08-19T00:36:56;21.70;99.90
37289;DHT22;23174;49.462;11.000;2022-08-19T00:38:57;21.70;99.90
37289;DHT22;23174;49.462;11.000;2022-08-19T00:40:58;21.70;99.90
37289;DHT22;23174;49.462;11.000;2022-08-19T00:42:59;21.60;99.90
37289;DHT22;23174;49.462;11.000;2022-08-19T00:45:00;21.50;99.90
37289;DHT22;23174;49.462;11.000;2022-08-19T00:47:00;21.60;99.90
37289;DHT22;23174;49.462;11.000;2022-08-19T00:49:03;21.50;99.90
37289;DHT22;23174;49.462;11.000;2022-08-19T00:51:06;21.60;99.90
37289;DHT22;23174;49.462;11.000;2022-08-19T00:53:07;21.40;99.90
37289;DHT22;23174;49.462;11.000;2022-08-19T00:55:08;21.40;99.90
37289;DHT22;23174;49.462;11.000;2022-08-19T00:57:15;21.40;99.90
37289;DHT22;23174;49.462;11.000;2022-08-19T00:59:17;21.50;99.90
37289;DHT22;23174;49.462;11.000;2022-08-19T01:01:18;21.50;99.90
37289;DHT22;23174;49.462;11.000;2022-08-19T01:03:20;21.50;99.90
37289;DHT22;23174;49.462;11.000;2022-08-19T01:05:30;21.40;99.90
37289;DHT22;23174;49.462;11.000;2022-08-19T01:07:30;21.40;99.90
37289;DHT22;23174;49.462;11.000;2022-08-19T01:09:31;21.50;99.90
37289;DHT22;23174;49.462;11.000;2022-08-19T01:11:36;21.40;99.90
37289;DHT22;23174;49.462;11.000;2022-08-19T01:13:38;21.50;99.90
37289;DHT22;23174;49.462;11.000;2022-08-19T01:15:43;21.40;99.90
37289;DHT22;23174;49.462;11.000;2022-08-19T01:17:45;21.50;99.90
37289;DHT22;23174;49.462;11.000;2022-08-19T01:19:46;21.60;99.90
37289;DHT22;23174;49.462;11.000;2022-08-19T01:21:57;21.60;99.90
37289;DHT22;23174;49.462;11.000;2022-08-19T01:24:00;21.50;99.90
37289;DHT22;23174;49.462;11.000;2022-08-19T01:26:01;21.40;99.90
37289;DHT22;23174;49.462;11.000;2022-08-19T01:28:02;21.40;99.90
37289;DHT22;23174;49.462;11.000;2022-08-19T01:30:03;21.40;99.90
37289;DHT22;23174;49.462;11.000;2022-08-19T01:32:04;21.40;99.90
37289;DHT22;23174;49.462;11.000;2022-08-19T01:34:05;21.50;99.90
37289;DHT22;23174;49.462;11.000;2022-08-19T01:36:10;21.60;99.90
37289;DHT22;23174;49.462;11.000;2022-08-19T01:38:26;21.40;99.90
37289;DHT22;23174;49.462;11.000;2022-08-19T01:40:30;21.50;99.90
37289;DHT22;23174;49.462;11.000;2022-08-19T01:42:31;21.50;99.90
37289;DHT22;23174;49.462;11.000;2022-08-19T01:44:32;21.50;99.90
37289;DHT22;23174;49.462;11.000;2022-08-19T01:46:33;21.40;99.90
37289;DHT22;23174;49.462;11.000;2022-08-19T01:48:42;21.40;99.90
37289;DHT22;23174;49.462;11.000;2022-08-19T01:50:43;21.40;99.90
37289;DHT22;23174;49.462;11.000;2022-08-19T01:52:45;21.40;99.90
37289;DHT22;23174;49.462;11.000;2022-08-19T01:54:45;21.50;99.90
37289;DHT22;23174;49.462;11.000;2022-08-19T01:56:46;21.40;99.90
37289;DHT22;23174;49.462;11.000;2022-08-19T01:58:51;21.30;99.90
37289;DHT22;23174;49.462;11.000;2022-08-19T02:00:53;21.20;99.90
37289;DHT22;23174;49.462;11.000;2022-08-19T02:02:54;21.30;99.90
37289;DHT22;23174;49.462;11.000;2022-08-19T02:04:54;21.30;99.90
37289;DHT22;23174;49.462;11.000;2022-08-19T02:06:55;21.50;99.90
37289;DHT22;23174;49.462;11.000;2022-08-19T02:08:56;21.50;99.90
37289;DHT22;23174;49.462;11.000;2022-08-19T02:10:57;21.40;99.90
37289;DHT22;23174;49.462;11.000;2022-08-19T02:12:57;21.50;99.90
37289;DHT22;23174;49.462;11.000;2022-08-19T02:14:59;21.40;99.90
37289;DHT22;23174;49.462;11.000;2022-08-19T02:17:00;21.30;99.90
37289;DHT22;23174;49.462;11.000;2022-08-19T02:19:01;21.40;99.90
37289;DHT22;23174;49.462;11.000;2022-08-19T02:21:02;21.50;99.90
37289;DHT22;23174;49.462;11.000;2022-08-19T02:23:03;21.50;99.90
37289;DHT22;23174;49.462;11.000;2022-08-19T02:25:04;21.40;99.90
37289;DHT22;23174;49.462;11.000;2022-08-19T02:27:05;21.40;99.90
37289;DHT22;23174;49.462;11.000;2022-08-19T02:29:06;21.30;99.90
37289;DHT22;23174;49.462;11.000;2022-08-19T02:31:15;21.30;99.90
37289;DHT22;23174;49.462;11.000;2022-08-19T02:33:16;21.20;99.90
37289;DHT22;23174;49.462;11.000;2022-08-19T02:35:17;21.40;99.90
37289;DHT22;23174;49.462;11.000;2022-08-19T02:37:17;21.40;99.90
37289;DHT22;23174;49.462;11.000;2022-08-19T02:39:37;21.40;99.90
37289;DHT22;23174;49.462;11.000;2022-08-19T02:41:37;21.40;99.90
37289;DHT22;23174;49.462;11.000;2022-08-19T02:43:38;21.40;99.90
37289;DHT22;23174;49.462;11.000;2022-08-19T02:45:40;21.40;99.90
37289;DHT22;23174;49.462;11.000;2022-08-19T02:47:41;21.50;99.90
37289;DHT22;23174;49.462;11.000;2022-08-19T02:49:42;21.40;99.90
37289;DHT22;23174;49.462;11.000;2022-08-19T02:51:44;21.50;99.90
37289;DHT22;23174;49.462;11.000;2022-08-19T02:53:45;21.60;99.90
37289;DHT22;23174;49.462;11.000;2022-08-19T02:55:46;21.30;99.90
37289;DHT22;23174;49.462;11.000;2022-08-19T02:57:48;21.30;99.90
37289;DHT22;23174;49.462;11.000;2022-08-19T02:59:48;21.30;99.90
37289;DHT22;23174;49.462;11.000;2022-08-19T03:01:50;21.30;99.90
37289;DHT22;23174;49.462;11.000;2022-08-19T03:03:51;21.30;99.90
37289;DHT22;23174;49.462;11.000;2022-08-19T03:05:51;21.40;99.90
37289;DHT22;23174;49.462;11.000;2022-08-19T03:07:52;21.30;99.90
37289;DHT22;23174;49.462;11.000;2022-08-19T03:09:53;21.40;99.90
37289;DHT22;23174;49.462;11.000;2022-08-19T03:11:53;21.30;99.90
37289;DHT22;23174;49.462;11.000;2022-08-19T03:13:54;21.30;99.90
37289;DHT22;23174;49.462;11.000;2022-08-19T03:15:55;21.40;99.90
37289;DHT22;23174;49.462;11.000;2022-08-19T03:17:55;21.50;99.90
37289;DHT22;23174;49.462;11.000;2022-08-19T03:19:56;21.40;99.90
37289;DHT22;23174;49.462;11.000;2022-08-19T03:21:57;21.40;99.90
37289;DHT22;23174;49.462;11.000;2022-08-19T03:24:04;21.30;99.90
37289;DHT22;23174;49.462;11.000;2022-08-19T03:26:05;21.30;99.90
37289;DHT22;23174;49.462;11.000;2022-08-19T03:28:06;21.30;99.90
37289;DHT22;23174;49.462;11.000;2022-08-19T03:30:08;21.40;99.90
37289;DHT22;23174;49.462;11.000;2022-08-19T03:32:09;21.30;99.90
37289;DHT22;23174;49.462;11.000;2022-08-19T03:34:15;21.30;99.90
37289;DHT22;23174;49.462;11.000;2022-08-19T03:36:20;21.40;99.90
37289;DHT22;23174;49.462;11.000;2022-08-19T03:38:22;21.50;99.90
37289;DHT22;23174;49.462;11.000;2022-08-19T03:40:23;21.40;99.90
37289;DHT22;23174;49.462;11.000;2022-08-19T03:42:24;21.40;99.90
37289;DHT22;23174;49.462;11.000;2022-08-19T03:44:27;21.30;99.90
37289;DHT22;23174;49.462;11.000;2022-08-19T03:46:30;21.30;99.90
37289;DHT22;23174;49.462;11.000;2022-08-19T03:48:32;21.30;99.90
37289;DHT22;23174;49.462;11.000;2022-08-19T03:50:32;21.20;99.90
37289;DHT22;23174;49.462;11.000;2022-08-19T03:52:33;21.40;99.90
37289;DHT22;23174;49.462;11.000;2022-08-19T03:54:34;21.40;99.90
37289;DHT22;23174;49.462;11.000;2022-08-19T03:56:37;21.40;99.90
37289;DHT22;23174;49.462;11.000;2022-08-19T03:58:38;21.40;99.90
37289;DHT22;23174;49.462;11.000;2022-08-19T04:00:42;21.50;99.90
37289;DHT22;23174;49.462;11.000;2022-08-19T04:02:43;21.20;99.90
37289;DHT22;23174;49.462;11.000;2022-08-19T04:04:44;21.30;99.90
37289;DHT22;23174;49.462;11.000;2022-08-19T04:06:45;21.30;99.90
37289;DHT22;23174;49.462;11.000;2022-08-19T04:08:49;21.40;99.90
37289;DHT22;23174;49.462;11.000;2022-08-19T04:10:50;21.40;99.90
37289;DHT22;23174;49.462;11.000;2022-08-19T04:12:51;21.30;99.90
37289;DHT22;23174;49.462;11.000;2022-08-19T04:14:51;21.30;99.90
37289;DHT22;23174;49.462;11.000;2022-08-19T04:16:52;21.30;99.90
37289;DHT22;23174;49.462;11.000;2022-08-19T04:18:53;21.30;99.90
37289;DHT22;23174;49.462;11.000;2022-08-19T04:20:54;21.40;99.90
37289;DHT22;23174;49.462;11.000;2022-08-19T04:22:56;21.40;99.90
37289;DHT22;23174;49.462;11.000;2022-08-19T04:24:57;21.20;99.90
37289;DHT22;23174;49.462;11.000;2022-08-19T04:27:00;21.30;99.90
37289;DHT22;23174;49.462;11.000;2022-08-19T04:29:04;21.40;99.90
37289;DHT22;23174;49.462;11.000;2022-08-19T04:31:05;21.40;99.90
37289;DHT22;23174;49.462;11.000;2022-08-19T04:33:05;21.40;99.90
37289;DHT22;23174;49.462;11.000;2022-08-19T04:35:06;21.30;99.90
37289;DHT22;23174;49.462;11.000;2022-08-19T04:37:07;21.30;99.90
37289;DHT22;23174;49.462;11.000;2022-08-19T04:39:16;21.30;99.90
37289;DHT22;23174;49.462;11.000;2022-08-19T04:41:16;21.30;99.90
37289;DHT22;23174;49.462;11.000;2022-08-19T04:43:37;21.30;99.90
37289;DHT22;23174;49.462;11.000;2022-08-19T04:45:38;21.20;99.90
37289;DHT22;23174;49.462;11.000;2022-08-19T04:47:41;21.20;99.90
37289;DHT22;23174;49.462;11.000;2022-08-19T04:49:42;21.20;99.90
37289;DHT22;23174;49.462;11.000;2022-08-19T04:51:44;21.20;99.90
37289;DHT22;23174;49.462;11.000;2022-08-19T04:53:45;21.30;99.90
37289;DHT22;23174;49.462;11.000;2022-08-19T04:55:46;21.40;99.90
37289;DHT22;23174;49.462;11.000;2022-08-19T04:57:46;21.30;99.90
37289;DHT22;23174;49.462;11.000;2022-08-19T04:59:47;21.30;99.90
37289;DHT22;23174;49.462;11.000;2022-08-19T05:01:48;21.30;99.90
37289;DHT22;23174;49.462;11.000;2022-08-19T05:03:50;21.40;99.90
37289;DHT22;23174;49.462;11.000;2022-08-19T05:05:50;21.20;99.90
37289;DHT22;23174;49.462;11.000;2022-08-19T05:07:51;21.30;99.90
37289;DHT22;23174;49.462;11.000;2022-08-19T05:09:52;21.20;99.90
37289;DHT22;23174;49.462;11.000;2022-08-19T05:11:52;21.40;99.90
37289;DHT22;23174;49.462;11.000;2022-08-19T05:13:54;21.30;99.90
37289;DHT22;23174;49.462;11.000;2022-08-19T05:15:56;21.50;99.90
37289;DHT22;23174;49.462;11.000;2022-08-19T05:17:57;21.40;99.90
37289;DHT22;23174;49.462;11.000;2022-08-19T05:20:16;21.30;99.90
37289;DHT22;23174;49.462;11.000;2022-08-19T05:22:35;21.20;99.90
37289;DHT22;23174;49.462;11.000;2022-08-19T05:24:36;21.10;99.90
37289;DHT22;23174;49.462;11.000;2022-08-19T05:26:39;21.20;99.90
37289;DHT22;23174;49.462;11.000;2022-08-19T05:28:39;21.30;99.90
37289;DHT22;23174;49.462;11.000;2022-08-19T05:30:40;21.30;99.90
37289;DHT22;23174;49.462;11.000;2022-08-19T05:32:41;21.30;99.90
37289;DHT22;23174;49.462;11.000;2022-08-19T05:34:42;21.40;99.90
37289;DHT22;23174;49.462;11.000;2022-08-19T05:36:44;21.30;99.90
37289;DHT22;23174;49.462;11.000;2022-08-19T05:38:45;21.20;99.90
37289;DHT22;23174;49.462;11.000;2022-08-19T05:40:47;21.40;99.90
37289;DHT22;23174;49.462;11.000;2022-08-19T05:42:49;21.40;99.90
37289;DHT22;23174;49.462;11.000;2022-08-19T05:44:50;21.50;99.90
37289;DHT22;23174;49.462;11.000;2022-08-19T05:46:52;21.50;99.90
37289;DHT22;23174;49.462;11.000;2022-08-19T05:48:53;21.30;99.90
37289;DHT22;23174;49.462;11.000;2022-08-19T05:50:56;21.40;99.90
37289;DHT22;23174;49.462;11.000;2022-08-19T05:52:58;21.50;99.90
37289;DHT22;23174;49.462;11.000;2022-08-19T05:54:59;21.40;99.90
37289;DHT22;23174;49.462;11.000;2022-08-19T05:57:00;21.40;99.90
37289;DHT22;23174;49.462;11.000;2022-08-19T05:59:01;21.20;99.90
37289;DHT22;23174;49.462;11.000;2022-08-19T06:01:02;21.60;99.90
37289;DHT22;23174;49.462;11.000;2022-08-19T06:03:05;21.40;99.90
37289;DHT22;23174;49.462;11.000;2022-08-19T06:05:07;21.40;99.90
37289;DHT22;23174;49.462;11.000;2022-08-19T06:07:09;21.40;99.90
37289;DHT22;23174;49.462;11.000;2022-08-19T06:09:10;21.40;99.90
37289;DHT22;23174;49.462;11.000;2022-08-19T06:11:22;21.40;99.90
37289;DHT22;23174;49.462;11.000;2022-08-19T06:13:23;21.50;99.90
37289;DHT22;23174;49.462;11.000;2022-08-19T06:15:24;21.60;99.90
37289;DHT22;23174;49.462;11.000;2022-08-19T06:17:25;21.60;99.90
37289;DHT22;23174;49.462;11.000;2022-08-19T06:19:26;21.60;99.90
37289;DHT22;23174;49.462;11.000;2022-08-19T06:21:30;21.50;99.90
37289;DHT22;23174;49.462;11.000;2022-08-19T06:23:30;21.50;99.90
37289;DHT22;23174;49.462;11.000;2022-08-19T06:25:31;21.60;99.90
37289;DHT22;23174;49.462;11.000;2022-08-19T06:27:32;21.70;99.90
37289;DHT22;23174;49.462;11.000;2022-08-19T06:29:33;21.70;99.90
37289;DHT22;23174;49.462;11.000;2022-08-19T06:31:35;21.60;99.90
37289;DHT22;23174;49.462;11.000;2022-08-19T06:33:36;21.80;99.90
37289;DHT22;23174;49.462;11.000;2022-08-19T06:35:41;21.70;99.90
37289;DHT22;23174;49.462;11.000;2022-08-19T06:37:42;21.70;99.90
37289;DHT22;23174;49.462;11.000;2022-08-19T06:39:44;21.80;99.90
37289;DHT22;23174;49.462;11.000;2022-08-19T06:41:47;21.90;99.90
37289;DHT22;23174;49.462;11.000;2022-08-19T06:43:48;21.90;99.90
37289;DHT22;23174;49.462;11.000;2022-08-19T06:45:49;21.80;99.90
37289;DHT22;23174;49.462;11.000;2022-08-19T06:47:53;21.80;99.90
37289;DHT22;23174;49.462;11.000;2022-08-19T06:49:57;21.90;99.90
37289;DHT22;23174;49.462;11.000;2022-08-19T06:52:04;22.00;99.90
37289;DHT22;23174;49.462;11.000;2022-08-19T06:54:05;21.90;99.90
37289;DHT22;23174;49.462;11.000;2022-08-19T06:56:05;21.90;99.90
37289;DHT22;23174;49.462;11.000;2022-08-19T06:58:06;21.90;99.90
37289;DHT22;23174;49.462;11.000;2022-08-19T07:00:07;22.00;99.90
37289;DHT22;23174;49.462;11.000;2022-08-19T07:02:13;22.00;99.90
37289;DHT22;23174;49.462;11.000;2022-08-19T07:04:16;21.90;99.90
37289;DHT22;23174;49.462;11.000;2022-08-19T07:06:18;21.90;99.90
37289;DHT22;23174;49.462;11.000;2022-08-19T07:08:20;21.80;99.90
37289;DHT22;23174;49.462;11.000;2022-08-19T07:10:20;21.70;99.90
37289;DHT22;23174;49.462;11.000;2022-08-19T07:12:21;21.80;99.90
37289;DHT22;23174;49.462;11.000;2022-08-19T07:14:24;21.80;99.90
37289;DHT22;23174;49.462;11.000;2022-08-19T07:16:26;21.90;99.90
37289;DHT22;23174;49.462;11.000;2022-08-19T07:18:28;21.90;99.90
37289;DHT22;23174;49.462;11.000;2022-08-19T07:20:28;21.80;99.90
37289;DHT22;23174;49.462;11.000;2022-08-19T07:22:29;21.80;99.90
37289;DHT22;23174;49.462;11.000;2022-08-19T07:24:30;22.00;99.90
37289;DHT22;23174;49.462;11.000;2022-08-19T07:26:37;22.00;99.90
37289;DHT22;23174;49.462;11.000;2022-08-19T07:28:39;21.90;99.90
37289;DHT22;23174;49.462;11.000;2022-08-19T07:30:39;21.80;99.90
37289;DHT22;23174;49.462;11.000;2022-08-19T07:32:44;21.90;99.90
37289;DHT22;23174;49.462;11.000;2022-08-19T07:34:44;22.00;99.90
37289;DHT22;23174;49.462;11.000;2022-08-19T07:36:45;21.90;99.90
37289;DHT22;23174;49.462;11.000;2022-08-19T07:38:48;22.00;99.90
37289;DHT22;23174;49.462;11.000;2022-08-19T07:40:49;21.90;99.90
37289;DHT22;23174;49.462;11.000;2022-08-19T07:42:52;21.80;99.90
37289;DHT22;23174;49.462;11.000;2022-08-19T07:44:52;21.80;99.90
37289;DHT22;23174;49.462;11.000;2022-08-19T07:46:54;21.80;99.90
37289;DHT22;23174;49.462;11.000;2022-08-19T07:48:56;21.80;99.90
37289;DHT22;23174;49.462;11.000;2022-08-19T07:50:58;21.80;99.90
37289;DHT22;23174;49.462;11.000;2022-08-19T07:53:02;21.70;99.90
37289;DHT22;23174;49.462;11.000;2022-08-19T07:55:04;21.70;99.90
37289;DHT22;23174;49.462;11.000;2022-08-19T07:57:05;21.70;99.90
37289;DHT22;23174;49.462;11.000;2022-08-19T07:59:06;21.80;99.90
37289;DHT22;23174;49.462;11.000;2022-08-19T08:01:10;21.60;99.90
37289;DHT22;23174;49.462;11.000;2022-08-19T08:03:12;21.70;99.90
37289;DHT22;23174;49.462;11.000;2022-08-19T08:05:12;21.60;99.90
37289;DHT22;23174;49.462;11.000;2022-08-19T08:07:32;21.70;99.90
37289;DHT22;23174;49.462;11.000;2022-08-19T08:09:51;21.80;99.90
37289;DHT22;23174;49.462;11.000;2022-08-19T08:11:55;21.90;99.90
37289;DHT22;23174;49.462;11.000;2022-08-19T08:13:57;21.80;99.90
37289;DHT22;23174;49.462;11.000;2022-08-19T08:15:58;21.80;99.90
37289;DHT22;23174;49.462;11.000;2022-08-19T08:17:59;21.80;99.90
37289;DHT22;23174;49.462;11.000;2022-08-19T08:19:59;21.80;99.90
37289;DHT22;23174;49.462;11.000;2022-08-19T08:22:01;21.80;99.90
37289;DHT22;23174;49.462;11.000;2022-08-19T08:24:01;21.80;99.90
37289;DHT22;23174;49.462;11.000;2022-08-19T08:26:02;22.00;99.90
37289;DHT22;23174;49.462;11.000;2022-08-19T08:28:05;22.00;99.90
37289;DHT22;23174;49.462;11.000;2022-08-19T08:30:07;22.00;99.90
37289;DHT22;23174;49.462;11.000;2022-08-19T08:32:09;22.00;99.90
37289;DHT22;23174;49.462;11.000;2022-08-19T08:34:12;22.00;99.90
37289;DHT22;23174;49.462;11.000;2022-08-19T08:36:14;22.10;99.90
37289;DHT22;23174;49.462;11.000;2022-08-19T08:38:15;22.20;99.90
37289;DHT22;23174;49.462;11.000;2022-08-19T08:40:43;22.10;99.90
37289;DHT22;23174;49.462;11.000;2022-08-19T08:45:27;22.10;99.90
37289;DHT22;23174;49.462;11.000;2022-08-19T08:47:34;22.30;99.90
37289;DHT22;23174;49.462;11.000;2022-08-19T08:49:54;22.10;99.90
37289;DHT22;23174;49.462;11.000;2022-08-19T08:52:13;22.10;99.90
37289;DHT22;23174;49.462;11.000;2022-08-19T08:54:20;22.10;99.90
37289;DHT22;23174;49.462;11.000;2022-08-19T08:56:20;22.00;99.90
37289;DHT22;23174;49.462;11.000;2022-08-19T08:58:28;22.10;99.90
37289;DHT22;23174;49.462;11.000;2022-08-19T09:00:34;22.00;99.90
37289;DHT22;23174;49.462;11.000;2022-08-19T09:02:35;22.10;99.90
37289;DHT22;23174;49.462;11.000;2022-08-19T09:04:36;22.30;99.90
37289;DHT22;23174;49.462;11.000;2022-08-19T09:06:57;22.10;99.90
37289;DHT22;23174;49.462;11.000;2022-08-19T09:11:03;22.20;99.90
37289;DHT22;23174;49.462;11.000;2022-08-19T09:15:52;22.20;99.90
37289;DHT22;23174;49.462;11.000;2022-08-19T09:17:54;22.20;99.90
37289;DHT22;23174;49.462;11.000;2022-08-19T09:20:05;22.20;99.90
37289;DHT22;23174;49.462;11.000;2022-08-19T09:22:09;22.00;99.90
37289;DHT22;23174;49.462;11.000;2022-08-19T09:24:09;21.90;99.90
37289;DHT22;23174;49.462;11.000;2022-08-19T09:26:13;21.90;99.90
37289;DHT22;23174;49.462;11.000;2022-08-19T09:28:14;22.10;99.90
37289;DHT22;23174;49.462;11.000;2022-08-19T09:30:20;21.80;99.90
37289;DHT22;23174;49.462;11.000;2022-08-19T09:32:22;21.80;99.90
37289;DHT22;23174;49.462;11.000;2022-08-19T09:34:24;21.70;99.90
37289;DHT22;23174;49.462;11.000;2022-08-19T09:36:27;21.70;99.90
37289;DHT22;23174;49.462;11.000;2022-08-19T09:38:29;21.90;99.90
37289;DHT22;23174;49.462;11.000;2022-08-19T09:40:30;21.90;99.90
37289;DHT22;23174;49.462;11.000;2022-08-19T09:42:31;21.70;99.90
37289;DHT22;23174;49.462;11.000;2022-08-19T09:44:31;21.70;99.90
37289;DHT22;23174;49.462;11.000;2022-08-19T09:46:33;21.80;99.90
37289;DHT22;23174;49.462;11.000;2022-08-19T09:48:37;21.70;99.90
37289;DHT22;23174;49.462;11.000;2022-08-19T09:50:38;21.70;99.90
37289;DHT22;23174;49.462;11.000;2022-08-19T09:52:39;21.60;99.90
37289;DHT22;23174;49.462;11.000;2022-08-19T09:54:39;21.80;99.90
37289;DHT22;23174;49.462;11.000;2022-08-19T09:56:40;21.80;99.90
37289;DHT22;23174;49.462;11.000;2022-08-19T09:58:41;21.80;99.90
37289;DHT22;23174;49.462;11.000;2022-08-19T10:00:41;21.80;99.90
37289;DHT22;23174;49.462;11.000;2022-08-19T10:02:42;21.90;99.90
37289;DHT22;23174;49.462;11.000;2022-08-19T10:04:42;21.70;99.90
37289;DHT22;23174;49.462;11.000;2022-08-19T10:07:02;21.80;99.90
37289;DHT22;23174;49.462;11.000;2022-08-19T10:09:03;21.90;99.90
37289;DHT22;23174;49.462;11.000;2022-08-19T10:11:06;22.00;99.90
37289;DHT22;23174;49.462;11.000;2022-08-19T10:13:07;21.90;99.90
37289;DHT22;23174;49.462;11.000;2022-08-19T10:15:08;22.00;99.90
37289;DHT22;23174;49.462;11.000;2022-08-19T10:17:08;22.00;99.90
37289;DHT22;23174;49.462;11.000;2022-08-19T10:19:09;21.90;99.90
37289;DHT22;23174;49.462;11.000;2022-08-19T10:21:18;21.80;99.90
37289;DHT22;23174;49.462;11.000;2022-08-19T10:23:21;21.90;99.90
37289;DHT22;23174;49.462;11.000;2022-08-19T10:25:21;21.90;99.90
37289;DHT22;23174;49.462;11.000;2022-08-19T10:27:22;21.70;99.90
37289;DHT22;23174;49.462;11.000;2022-08-19T10:29:23;21.80;99.90
37289;DHT22;23174;49.462;11.000;2022-08-19T10:31:26;21.70;99.90
37289;DHT22;23174;49.462;11.000;2022-08-19T10:33:27;21.70;99.90
37289;DHT22;23174;49.462;11.000;2022-08-19T10:35:28;21.80;99.90
37289;DHT22;23174;49.462;11.000;2022-08-19T10:37:29;21.70;99.90
37289;DHT22;23174;49.462;11.000;2022-08-19T10:39:33;21.80;99.90
37289;DHT22;23174;49.462;11.000;2022-08-19T10:41:37;21.90;99.90
37289;DHT22;23174;49.462;11.000;2022-08-19T10:43:39;21.70;99.90
37289;DHT22;23174;49.462;11.000;2022-08-19T10:45:40;21.80;99.90
37289;DHT22;23174;49.462;11.000;2022-08-19T10:47:41;21.90;99.90
37289;DHT22;23174;49.462;11.000;2022-08-19T10:49:41;21.90;99.90
37289;DHT22;23174;49.462;11.000;2022-08-19T10:52:01;21.80;99.90
37289;DHT22;23174;49.462;11.000;2022-08-19T10:54:20;21.80;99.90
37289;DHT22;23174;49.462;11.000;2022-08-19T10:56:21;21.70;99.90
37289;DHT22;23174;49.462;11.000;2022-08-19T10:58:40;21.70;99.90
37289;DHT22;23174;49.462;11.000;2022-08-19T11:00:42;21.90;99.90
37289;DHT22;23174;49.462;11.000;2022-08-19T11:02:45;21.80;99.90
37289;DHT22;23174;49.462;11.000;2022-08-19T11:04:46;21.80;99.90
37289;DHT22;23174;49.462;11.000;2022-08-19T11:06:48;21.90;99.90
37289;DHT22;23174;49.462;11.000;2022-08-19T11:08:49;21.80;99.90
37289;DHT22;23174;49.462;11.000;2022-08-19T11:10:54;21.90;99.90
37289;DHT22;23174;49.462;11.000;2022-08-19T11:13:00;21.90;99.90
37289;DHT22;23174;49.462;11.000;2022-08-19T11:15:02;22.10;99.90
37289;DHT22;23174;49.462;11.000;2022-08-19T11:17:04;22.00;99.90
37289;DHT22;23174;49.462;11.000;2022-08-19T11:19:06;22.00;99.90
37289;DHT22;23174;49.462;11.000;2022-08-19T11:21:19;22.00;99.90
37289;DHT22;23174;49.462;11.000;2022-08-19T11:23:20;22.10;99.90
37289;DHT22;23174;49.462;11.000;2022-08-19T11:25:21;22.10;99.90
37289;DHT22;23174;49.462;11.000;2022-08-19T11:27:22;22.00;99.90
37289;DHT22;23174;49.462;11.000;2022-08-19T11:29:22;22.00;99.90
37289;DHT22;23174;49.462;11.000;2022-08-19T11:31:30;22.00;99.90
37289;DHT22;23174;49.462;11.000;2022-08-19T11:33:31;22.00;99.90
37289;DHT22;23174;49.462;11.000;2022-08-19T11:35:32;22.10;99.90
37289;DHT22;23174;49.462;11.000;2022-08-19T11:37:33;22.10;99.90
37289;DHT22;23174;49.462;11.000;2022-08-19T11:39:37;22.00;99.90
37289;DHT22;23174;49.462;11.000;2022-08-19T11:41:38;22.10;99.90
37289;DHT22;23174;49.462;11.000;2022-08-19T11:43:39;22.10;99.90
37289;DHT22;23174;49.462;11.000;2022-08-19T11:45:40;22.10;99.90
37289;DHT22;23174;49.462;11.000;2022-08-19T11:47:41;22.10;99.90
37289;DHT22;23174;49.462;11.000;2022-08-19T11:49:42;22.00;99.90
37289;DHT22;23174;49.462;11.000;2022-08-19T11:51:43;22.00;99.90
37289;DHT22;23174;49.462;11.000;2022-08-19T11:53:44;22.00;99.90
37289;DHT22;23174;49.462;11.000;2022-08-19T11:55:46;22.00;99.90
37289;DHT22;23174;49.462;11.000;2022-08-19T11:57:47;22.00;99.90
37289;DHT22;23174;49.462;11.000;2022-08-19T11:59:52;22.00;99.90
37289;DHT22;23174;49.462;11.000;2022-08-19T12:01:53;22.00;99.90
37289;DHT22;23174;49.462;11.000;2022-08-19T12:03:55;22.10;99.90
37289;DHT22;23174;49.462;11.000;2022-08-19T12:05:56;22.10;99.90
37289;DHT22;23174;49.462;11.000;2022-08-19T12:07:57;22.20;99.90
37289;DHT22;23174;49.462;11.000;2022-08-19T12:09:57;22.10;99.90
37289;DHT22;23174;49.462;11.000;2022-08-19T12:11:58;22.10;99.90
37289;DHT22;23174;49.462;11.000;2022-08-19T12:13:59;22.10;99.90
37289;DHT22;23174;49.462;11.000;2022-08-19T12:16:00;22.10;99.90
37289;DHT22;23174;49.462;11.000;2022-08-19T12:18:02;22.10;99.90
37289;DHT22;23174;49.462;11.000;2022-08-19T12:20:03;22.10;99.90
37289;DHT22;23174;49.462;11.000;2022-08-19T12:22:05;22.00;99.90
37289;DHT22;23174;49.462;11.000;2022-08-19T12:24:06;22.00;99.90
37289;DHT22;23174;49.462;11.000;2022-08-19T12:26:09;22.00;99.90
37289;DHT22;23174;49.462;11.000;2022-08-19T12:28:10;22.00;99.90
37289;DHT22;23174;49.462;11.000;2022-08-19T12:30:12;21.90;99.90
37289;DHT22;23174;49.462;11.000;2022-08-19T12:32:13;21.80;99.90
37289;DHT22;23174;49.462;11.000;2022-08-19T12:34:14;21.80;99.90
37289;DHT22;23174;49.462;11.000;2022-08-19T12:36:15;21.60;99.90
37289;DHT22;23174;49.462;11.000;2022-08-19T12:38:18;21.60;99.90
37289;DHT22;23174;49.462;11.000;2022-08-19T12:40:18;21.50;99.90
37289;DHT22;23174;49.462;11.000;2022-08-19T12:42:20;21.50;99.90
37289;DHT22;23174;49.462;11.000;2022-08-19T12:44:23;21.40;99.90
37289;DHT22;23174;49.462;11.000;2022-08-19T12:46:24;21.40;99.90
37289;DHT22;23174;49.462;11.000;2022-08-19T12:48:25;21.40;99.90